Time;durP1;ratioP1;P1;durP2;ratioP2;P2;SDS_P1;SDS_P2;PMS_P1;PMS_P2;Temp;Humidity;BMP_temperature;BMP_pressure;BME280_temperature;BME280_humidity;BME280_pressure;Samples;Min_cycle;Max_cycle;Signal;HPM_P1;HPM_P2
2022/03/29 00:00:33;;;;;;;;;;;9.40;63.90;;;;;;5062474;28;20365;-65
2022/03/29 00:02:59;;;;;;;;;;;9.30;63.90;;;;;;5044984;28;19909;-65
2022/03/29 00:05:26;;;;;;;;;;;9.30;64.80;;;;;;5062397;28;20195;-65
2022/03/29 00:07:52;;;;;;;;;;;9.20;64.50;;;;;;5062685;28;19940;-66
2022/03/29 00:10:17;;;;;;;;;;;9.30;64.80;;;;;;5063072;28;19916;-65
2022/03/29 00:12:43;;;;;;;;;;;9.30;64.70;;;;;;5062165;28;19912;-65
2022/03/29 00:15:09;;;;;;;;;;;9.30;64.30;;;;;;5062540;28;19955;-65
2022/03/29 00:17:35;;;;;;;;;;;9.40;64.10;;;;;;5062459;28;20107;-66
2022/03/29 00:20:01;;;;;;;;;;;9.40;63.90;;;;;;5062451;28;19913;-66
2022/03/29 00:22:26;;;;;;;;;;;9.30;64.80;;;;;;5061906;28;20192;-66
2022/03/29 00:24:52;;;;;;;;;;;9.20;65.20;;;;;;5062506;28;20225;-66
2022/03/29 00:27:18;;;;;;;;;;;9.20;65.30;;;;;;5062197;28;19909;-66
2022/03/29 00:29:43;;;;;;;;;;;9.10;65.40;;;;;;5062374;28;19917;-65
2022/03/29 00:32:10;;;;;;;;;;;9.10;65.90;;;;;;5062073;28;19909;-66
2022/03/29 00:34:37;;;;;;;;;;;9.10;66.00;;;;;;5062278;28;19916;-66
2022/03/29 00:37:04;;;;;;;;;;;9.00;66.50;;;;;;5061461;28;19909;-66
2022/03/29 00:39:29;;;;;;;;;;;9.00;66.70;;;;;;5080286;23;19996;-64
2022/03/29 00:41:56;;;;;;;;;;;9.00;67.40;;;;;;5061849;28;19913;-63
2022/03/29 00:44:28;;;;;;;;;;;9.00;67.40;;;;;;5061252;28;19947;-65
2022/03/29 00:46:54;;;;;;;;;;;9.00;67.50;;;;;;5056337;28;19944;-64
2022/03/29 00:49:20;;;;;;;;;;;8.90;68.10;;;;;;5062132;28;20177;-64
2022/03/29 00:51:46;;;;;;;;;;;8.90;68.20;;;;;;5045627;28;19920;-64
2022/03/29 00:54:12;;;;;;;;;;;8.90;68.20;;;;;;5054622;28;19915;-64
2022/03/29 00:56:38;;;;;;;;;;;8.80;68.40;;;;;;5065582;28;19976;-64
2022/03/29 00:59:04;;;;;;;;;;;8.90;68.50;;;;;;5065555;28;19912;-64
2022/03/29 01:01:29;;;;;;;;;;;8.80;68.20;;;;;;5063221;28;19912;-64
2022/03/29 01:03:55;;;;;;;;;;;8.80;68.30;;;;;;5064579;28;20206;-64
2022/03/29 01:06:21;;;;;;;;;;;8.70;68.80;;;;;;5065622;28;19944;-64
2022/03/29 01:08:46;;;;;;;;;;;8.70;69.10;;;;;;5065061;28;19954;-63
2022/03/29 01:11:12;;;;;;;;;;;8.70;69.50;;;;;;5063849;28;19924;-63
2022/03/29 01:13:39;;;;;;;;;;;8.50;69.90;;;;;;5064380;28;19944;-64
2022/03/29 01:18:49;;;;;;;;;;;8.40;70.60;;;;;;5064237;28;20221;-64
2022/03/29 01:21:16;;;;;;;;;;;8.30;70.80;;;;;;5062198;28;19945;-63
2022/03/29 01:23:44;;;;;;;;;;;8.30;70.90;;;;;;5065183;28;19909;-64
2022/03/29 01:26:09;;;;;;;;;;;8.30;71.10;;;;;;5050957;28;19916;-63
2022/03/29 01:28:35;;;;;;;;;;;8.30;71.20;;;;;;5064890;28;19908;-64
2022/03/29 01:31:01;;;;;;;;;;;8.40;70.90;;;;;;5063729;28;19909;-63
2022/03/29 01:33:26;;;;;;;;;;;8.30;71.60;;;;;;5063885;28;19909;-63
2022/03/29 01:35:52;;;;;;;;;;;8.30;71.40;;;;;;5063980;28;20212;-63
2022/03/29 01:38:18;;;;;;;;;;;8.40;71.30;;;;;;5063758;28;20022;-64
2022/03/29 01:40:44;;;;;;;;;;;8.40;71.10;;;;;;5064511;28;19909;-63
2022/03/29 01:43:11;;;;;;;;;;;8.30;71.70;;;;;;5064889;28;20112;-63
2022/03/29 01:45:37;;;;;;;;;;;8.20;72.00;;;;;;5056993;28;19908;-63
2022/03/29 01:48:03;;;;;;;;;;;8.20;72.50;;;;;;5064562;28;19916;-64
2022/03/29 01:50:29;;;;;;;;;;;8.20;72.80;;;;;;5064602;28;19909;-64
2022/03/29 01:52:54;;;;;;;;;;;8.20;72.60;;;;;;5063493;28;19923;-64
2022/03/29 01:55:20;;;;;;;;;;;8.20;72.70;;;;;;5064640;28;19915;-64
2022/03/29 01:57:46;;;;;;;;;;;8.20;73.30;;;;;;5064512;28;19909;-64
2022/03/29 02:00:31;;;;;;;;;;;8.20;73.10;;;;;;5064477;28;20010;-63
2022/03/29 02:02:58;;;;;;;;;;;8.20;73.30;;;;;;5064326;28;19913;-64
2022/03/29 02:05:24;;;;;;;;;;;8.30;72.60;;;;;;5064289;28;19970;-64
2022/03/29 02:07:52;;;;;;;;;;;8.30;72.70;;;;;;5064244;28;19909;-63
2022/03/29 02:10:19;;;;;;;;;;;8.20;73.00;;;;;;5064221;28;19909;-63
2022/03/29 02:12:46;;;;;;;;;;;8.20;73.20;;;;;;5046348;28;19993;-64
2022/03/29 02:15:12;;;;;;;;;;;8.20;73.20;;;;;;5064285;28;19908;-64
2022/03/29 02:17:37;;;;;;;;;;;8.10;73.70;;;;;;5064123;28;19979;-64
2022/03/29 02:20:06;;;;;;;;;;;8.10;73.90;;;;;;5064105;28;20212;-64
2022/03/29 02:22:32;;;;;;;;;;;8.10;73.90;;;;;;5063554;28;20116;-65
2022/03/29 02:24:58;;;;;;;;;;;8.10;74.20;;;;;;5064032;28;20196;-64
2022/03/29 02:27:24;;;;;;;;;;;8.00;74.40;;;;;;5063997;28;19916;-64
2022/03/29 02:29:49;;;;;;;;;;;8.00;74.70;;;;;;5063878;28;19908;-64
2022/03/29 02:32:15;;;;;;;;;;;8.10;74.30;;;;;;5063523;28;19916;-64
2022/03/29 02:34:41;;;;;;;;;;;8.10;74.30;;;;;;5046186;28;20200;-64
2022/03/29 02:37:06;;;;;;;;;;;8.20;74.00;;;;;;5063516;28;19909;-64
2022/03/29 02:39:32;;;;;;;;;;;8.20;73.40;;;;;;5058896;28;19920;-64
2022/03/29 02:41:58;;;;;;;;;;;8.10;73.90;;;;;;5063290;28;19920;-64
2022/03/29 02:44:23;;;;;;;;;;;8.00;74.30;;;;;;5063734;28;19947;-64
2022/03/29 02:46:50;;;;;;;;;;;8.10;74.30;;;;;;5063569;28;19909;-64
2022/03/29 02:49:16;;;;;;;;;;;7.90;74.90;;;;;;5063462;28;19913;-64
2022/03/29 02:51:42;;;;;;;;;;;7.90;75.10;;;;;;5062437;28;20209;-64
2022/03/29 02:54:08;;;;;;;;;;;7.80;75.30;;;;;;5063401;28;19913;-64
2022/03/29 02:56:34;;;;;;;;;;;7.80;75.60;;;;;;5063564;28;19916;-64
2022/03/29 02:59:00;;;;;;;;;;;7.70;75.80;;;;;;5063156;28;19909;-64
2022/03/29 03:01:28;;;;;;;;;;;7.70;76.80;;;;;;5063028;28;19920;-65
2022/03/29 03:03:55;;;;;;;;;;;7.60;76.60;;;;;;5063266;28;19980;-65
2022/03/29 03:06:21;;;;;;;;;;;7.60;76.70;;;;;;5063341;28;19954;-64
2022/03/29 03:08:46;;;;;;;;;;;7.50;77.20;;;;;;5062975;28;19909;-65
2022/03/29 03:11:12;;;;;;;;;;;7.50;77.50;;;;;;5062985;28;19971;-64
2022/03/29 03:13:38;;;;;;;;;;;7.50;77.70;;;;;;5045494;28;19983;-64
2022/03/29 03:16:04;;;;;;;;;;;7.40;77.80;;;;;;5062533;28;20254;-62
2022/03/29 03:18:29;;;;;;;;;;;7.50;77.50;;;;;;5063239;28;20030;-64
2022/03/29 03:20:55;;;;;;;;;;;7.40;77.40;;;;;;5062716;28;19924;-64
2022/03/29 03:23:21;;;;;;;;;;;7.40;77.70;;;;;;5062782;28;19913;-65
2022/03/29 03:25:49;;;;;;;;;;;7.40;77.90;;;;;;5063016;28;19916;-64
2022/03/29 03:28:14;;;;;;;;;;;7.30;78.20;;;;;;5062856;28;20230;-64
2022/03/29 03:30:40;;;;;;;;;;;7.40;78.20;;;;;;5062623;28;19909;-64
2022/03/29 03:33:06;;;;;;;;;;;7.40;78.10;;;;;;5062974;28;19932;-64
2022/03/29 03:35:32;;;;;;;;;;;7.40;77.10;;;;;;5063023;28;19931;-64
2022/03/29 03:37:57;;;;;;;;;;;7.40;75.70;;;;;;5062443;28;19913;-64
2022/03/29 03:40:23;;;;;;;;;;;7.50;75.40;;;;;;5062142;28;20171;-63
2022/03/29 03:42:49;;;;;;;;;;;7.50;75.40;;;;;;5062576;28;19913;-63
2022/03/29 03:45:14;;;;;;;;;;;7.50;75.40;;;;;;5062709;28;19996;-63
2022/03/29 03:47:40;;;;;;;;;;;7.40;75.70;;;;;;5062837;28;20294;-65
2022/03/29 03:50:06;;;;;;;;;;;7.40;76.00;;;;;;5062579;28;19921;-64
2022/03/29 03:52:32;;;;;;;;;;;7.30;76.90;;;;;;5043549;28;19951;-64
2022/03/29 03:54:57;;;;;;;;;;;7.20;76.70;;;;;;5062551;28;19972;-64
2022/03/29 03:57:23;;;;;;;;;;;7.20;76.60;;;;;;5062211;28;19913;-64
2022/03/29 03:59:51;;;;;;;;;;;7.20;76.00;;;;;;5062402;28;19995;-63
2022/03/29 04:02:17;;;;;;;;;;;7.20;76.80;;;;;;5062409;28;19920;-64
2022/03/29 04:04:43;;;;;;;;;;;7.20;77.90;;;;;;5062568;28;19931;-63
2022/03/29 04:07:08;;;;;;;;;;;7.20;78.50;;;;;;5062359;28;19909;-64
2022/03/29 04:09:35;;;;;;;;;;;7.20;78.30;;;;;;5061670;28;19908;-65
2022/03/29 04:12:05;;;;;;;;;;;7.20;78.60;;;;;;5060977;28;20219;-65
2022/03/29 04:14:30;;;;;;;;;;;7.10;78.40;;;;;;5062417;28;19908;-64
2022/03/29 04:16:56;;;;;;;;;;;7.10;78.70;;;;;;5062443;28;20254;-64
2022/03/29 04:19:22;;;;;;;;;;;7.00;78.50;;;;;;5062041;28;19913;-64
2022/03/29 04:21:47;;;;;;;;;;;7.00;78.50;;;;;;5061426;28;20199;-64
2022/03/29 04:24:13;;;;;;;;;;;7.00;78.60;;;;;;5044480;28;19955;-63
2022/03/29 04:26:39;;;;;;;;;;;6.90;79.30;;;;;;5062318;28;20212;-63
2022/03/29 04:29:05;;;;;;;;;;;7.00;79.20;;;;;;5064695;28;19972;-64
2022/03/29 04:31:31;;;;;;;;;;;6.90;79.00;;;;;;5065581;28;19916;-64
2022/03/29 04:33:58;;;;;;;;;;;6.90;79.10;;;;;;5065755;28;19913;-65
2022/03/29 04:36:24;;;;;;;;;;;6.80;79.70;;;;;;5065788;28;19913;-64
2022/03/29 04:38:50;;;;;;;;;;;6.90;79.90;;;;;;5065716;28;19919;-64
2022/03/29 04:41:16;;;;;;;;;;;6.90;80.20;;;;;;5065004;28;19913;-64
2022/03/29 04:43:42;;;;;;;;;;;6.90;79.90;;;;;;5065835;28;19932;-63
2022/03/29 04:46:07;;;;;;;;;;;6.80;79.60;;;;;;5065834;28;19940;-65
2022/03/29 04:48:33;;;;;;;;;;;6.80;79.80;;;;;;5065721;28;19912;-66
2022/03/29 04:50:59;;;;;;;;;;;6.80;80.30;;;;;;5065530;28;19909;-65
2022/03/29 04:53:24;;;;;;;;;;;6.70;80.70;;;;;;5065446;28;19913;-65
2022/03/29 04:55:50;;;;;;;;;;;6.80;80.60;;;;;;5065705;28;19915;-65
2022/03/29 04:58:17;;;;;;;;;;;6.70;80.50;;;;;;5065519;28;19917;-65
2022/03/29 05:00:43;;;;;;;;;;;6.70;80.70;;;;;;5065254;28;19915;-65
2022/03/29 05:03:08;;;;;;;;;;;6.60;81.20;;;;;;5064842;28;20180;-65
2022/03/29 05:05:34;;;;;;;;;;;6.70;80.80;;;;;;5065024;28;19996;-65
2022/03/29 05:08:00;;;;;;;;;;;6.60;80.80;;;;;;5059062;28;19919;-65
2022/03/29 05:10:25;;;;;;;;;;;6.70;80.90;;;;;;5063976;28;20072;-65
2022/03/29 05:12:51;;;;;;;;;;;6.60;80.80;;;;;;5064842;28;19924;-65
2022/03/29 05:15:19;;;;;;;;;;;6.60;81.00;;;;;;5065151;28;19917;-64
2022/03/29 05:17:45;;;;;;;;;;;6.60;81.00;;;;;;5064978;28;20119;-64
2022/03/29 05:20:11;;;;;;;;;;;6.70;81.10;;;;;;5064992;28;19915;-64
2022/03/29 05:22:57;;;;;;;;;;;6.60;81.10;;;;;;5064601;28;20210;-65
2022/03/29 05:25:24;;;;;;;;;;;6.60;81.50;;;;;;5064837;28;19916;-64
2022/03/29 05:27:51;;;;;;;;;;;6.60;81.90;;;;;;5048059;28;19908;-65
2022/03/29 05:30:16;;;;;;;;;;;6.60;82.40;;;;;;5060456;28;20164;-65
2022/03/29 05:32:42;;;;;;;;;;;6.50;82.20;;;;;;5063755;28;19913;-65
2022/03/29 05:35:09;;;;;;;;;;;6.50;82.50;;;;;;5064089;28;19920;-65
2022/03/29 05:37:35;;;;;;;;;;;6.60;82.20;;;;;;5061993;28;20012;-65
2022/03/29 05:40:02;;;;;;;;;;;6.60;82.20;;;;;;5055821;28;19927;-64
2022/03/29 05:42:29;;;;;;;;;;;6.60;82.10;;;;;;5064277;28;20108;-65
2022/03/29 05:44:54;;;;;;;;;;;6.70;82.10;;;;;;5063310;28;19909;-65
2022/03/29 05:50:04;;;;;;;;;;;6.70;82.80;;;;;;5060564;28;19920;-63
2022/03/29 05:52:30;;;;;;;;;;;6.70;82.60;;;;;;5057724;28;20414;-64
2022/03/29 05:54:57;;;;;;;;;;;6.70;83.20;;;;;;5061550;28;19909;-64
2022/03/29 05:57:23;;;;;;;;;;;6.80;82.90;;;;;;5064469;28;19946;-64
2022/03/29 05:59:48;;;;;;;;;;;6.90;82.70;;;;;;5064097;28;19913;-64
2022/03/29 06:02:14;;;;;;;;;;;6.80;82.40;;;;;;5063990;28;19920;-64
2022/03/29 06:04:40;;;;;;;;;;;6.90;82.30;;;;;;5064094;28;19980;-63
2022/03/29 06:07:05;;;;;;;;;;;6.90;82.20;;;;;;5063879;28;19916;-64
2022/03/29 06:09:32;;;;;;;;;;;6.80;82.50;;;;;;5064157;28;19909;-64
2022/03/29 06:11:57;;;;;;;;;;;6.80;82.50;;;;;;5063842;28;19972;-63
2022/03/29 06:14:23;;;;;;;;;;;7.00;81.90;;;;;;5064049;28;19916;-63
2022/03/29 06:16:49;;;;;;;;;;;7.00;81.60;;;;;;5063368;28;19940;-63
2022/03/29 06:19:15;;;;;;;;;;;7.10;81.40;;;;;;5063746;28;20200;-65
2022/03/29 06:21:40;;;;;;;;;;;7.10;81.10;;;;;;5063538;28;19920;-65
2022/03/29 06:24:07;;;;;;;;;;;7.20;81.10;;;;;;5062875;28;19916;-64
2022/03/29 06:26:36;;;;;;;;;;;7.30;81.00;;;;;;5063980;28;19908;-65
2022/03/29 06:29:09;;;;;;;;;;;7.50;80.50;;;;;;5063284;28;19956;-64
2022/03/29 06:31:35;;;;;;;;;;;7.60;79.60;;;;;;5062993;28;19915;-64
2022/03/29 06:34:01;;;;;;;;;;;7.80;79.40;;;;;;5062879;28;19909;-62
2022/03/29 06:36:27;;;;;;;;;;;7.80;78.70;;;;;;5045344;28;19909;-69
2022/03/29 06:38:52;;;;;;;;;;;7.80;78.80;;;;;;5084748;22;19951;-68
2022/03/29 06:41:19;;;;;;;;;;;8.00;78.20;;;;;;5059464;28;20120;-69
2022/03/29 06:43:44;;;;;;;;;;;8.00;78.30;;;;;;5063459;28;19909;-69
2022/03/29 06:46:10;;;;;;;;;;;8.30;77.10;;;;;;5063171;28;19909;-68
2022/03/29 06:48:36;;;;;;;;;;;8.60;75.60;;;;;;5063266;28;19932;-67
2022/03/29 06:51:02;;;;;;;;;;;8.80;74.00;;;;;;5062050;28;19908;-68
2022/03/29 06:53:28;;;;;;;;;;;8.80;74.30;;;;;;5051936;28;19915;-71
2022/03/29 06:55:53;;;;;;;;;;;8.80;73.60;;;;;;5043119;28;19916;-69
2022/03/29 06:58:19;;;;;;;;;;;8.90;73.30;;;;;;5025463;28;19909;-71
2022/03/29 07:00:45;;;;;;;;;;;8.90;73.40;;;;;;5025117;28;19909;-75
2022/03/29 07:03:11;;;;;;;;;;;9.00;72.10;;;;;;5009014;28;19984;-70
2022/03/29 07:05:38;;;;;;;;;;;9.20;70.60;;;;;;5043088;28;20220;-71
2022/03/29 07:08:10;;;;;;;;;;;9.40;70.00;;;;;;5042689;28;19909;-70
2022/03/29 07:13:23;;;;;;;;;;;9.40;70.50;;;;;;5042761;28;19916;-68
2022/03/29 07:15:49;;;;;;;;;;;9.40;71.50;;;;;;5042817;28;19909;-68
2022/03/29 07:18:15;;;;;;;;;;;9.50;72.50;;;;;;5042328;28;19909;-68
2022/03/29 07:20:41;;;;;;;;;;;9.60;72.60;;;;;;5042402;28;20235;-68
2022/03/29 07:23:06;;;;;;;;;;;9.60;72.60;;;;;;5023788;28;19913;-72
2022/03/29 07:25:32;;;;;;;;;;;9.70;72.70;;;;;;5024760;28;20108;-71
2022/03/29 07:27:58;;;;;;;;;;;9.90;72.20;;;;;;5024404;28;19909;-69
2022/03/29 07:30:24;;;;;;;;;;;10.00;71.70;;;;;;5041264;28;19909;-69
2022/03/29 07:32:53;;;;;;;;;;;10.00;70.70;;;;;;5041777;28;19955;-71
2022/03/29 07:35:20;;;;;;;;;;;10.10;70.90;;;;;;5042415;28;20258;-69
2022/03/29 07:37:45;;;;;;;;;;;10.10;70.40;;;;;;5042682;28;19948;-69
2022/03/29 07:40:12;;;;;;;;;;;10.20;70.90;;;;;;5041948;28;19913;-68
2022/03/29 07:42:37;;;;;;;;;;;10.30;71.30;;;;;;5042084;28;19920;-73
2022/03/29 07:45:04;;;;;;;;;;;10.40;70.10;;;;;;5008552;28;19909;-73
2022/03/29 07:47:31;;;;;;;;;;;10.50;68.90;;;;;;5007978;28;19917;-73
2022/03/29 07:49:56;;;;;;;;;;;10.50;69.90;;;;;;5024783;28;19917;-74
2022/03/29 07:52:22;;;;;;;;;;;10.60;69.80;;;;;;5024407;28;19946;-70
2022/03/29 07:54:48;;;;;;;;;;;10.60;70.10;;;;;;5039132;28;19916;-67
2022/03/29 07:57:14;;;;;;;;;;;10.70;70.10;;;;;;5042293;28;20011;-67
2022/03/29 07:59:40;;;;;;;;;;;10.80;70.30;;;;;;5042246;28;20171;-67
2022/03/29 08:02:06;;;;;;;;;;;10.90;70.10;;;;;;5043343;28;19984;-67
2022/03/29 08:04:34;;;;;;;;;;;10.90;68.80;;;;;;5046272;28;20112;-68
2022/03/29 08:07:00;;;;;;;;;;;11.00;69.20;;;;;;5028608;28;20144;-70
2022/03/29 08:09:27;;;;;;;;;;;11.00;68.80;;;;;;5028380;28;19981;-71
2022/03/29 08:11:52;;;;;;;;;;;11.30;67.30;;;;;;5046364;28;19920;-71
2022/03/29 08:14:19;;;;;;;;;;;11.20;67.30;;;;;;5046280;28;19975;-71
2022/03/29 08:16:45;;;;;;;;;;;11.10;67.70;;;;;;5028848;28;20123;-71
2022/03/29 08:19:10;;;;;;;;;;;11.10;65.80;;;;;;5028138;28;19940;-70
2022/03/29 08:21:49;;;;;;;;;;;11.10;64.80;;;;;;5046019;28;19955;-71
2022/03/29 08:24:17;;;;;;;;;;;11.20;65.50;;;;;;5043622;28;19941;-71
2022/03/29 08:26:44;;;;;;;;;;;11.30;65.40;;;;;;5061681;28;20050;-71
2022/03/29 08:29:11;;;;;;;;;;;11.30;66.20;;;;;;5046006;28;19909;-71
2022/03/29 08:31:37;;;;;;;;;;;11.40;66.50;;;;;;5045280;28;19909;-71
2022/03/29 08:34:03;;;;;;;;;;;11.60;66.10;;;;;;5046018;28;19916;-71
2022/03/29 08:36:28;;;;;;;;;;;11.60;65.30;;;;;;5045768;28;19909;-71
2022/03/29 08:38:54;;;;;;;;;;;11.70;64.40;;;;;;5045556;28;19916;-71
2022/03/29 08:41:20;;;;;;;;;;;11.70;64.20;;;;;;5045428;28;19919;-70
2022/03/29 08:43:46;;;;;;;;;;;11.90;63.80;;;;;;5040178;28;19916;-70
2022/03/29 08:46:11;;;;;;;;;;;12.00;63.30;;;;;;5028017;28;19908;-69
2022/03/29 08:48:37;;;;;;;;;;;12.10;63.10;;;;;;5027468;28;19916;-69
2022/03/29 08:51:04;;;;;;;;;;;12.10;63.60;;;;;;5027307;28;19916;-71
2022/03/29 08:53:30;;;;;;;;;;;12.20;62.30;;;;;;5043928;28;20233;-67
2022/03/29 08:55:56;;;;;;;;;;;12.20;61.20;;;;;;5044489;28;19940;-68
2022/03/29 08:58:22;;;;;;;;;;;12.30;60.90;;;;;;5045566;28;19909;-68
2022/03/29 09:00:49;;;;;;;;;;;12.40;60.90;;;;;;5045178;28;19923;-71
2022/03/29 09:03:16;;;;;;;;;;;12.50;61.30;;;;;;5028130;28;19920;-71
2022/03/29 09:05:41;;;;;;;;;;;12.60;61.30;;;;;;5027832;28;20231;-71
2022/03/29 09:08:11;;;;;;;;;;;12.70;60.70;;;;;;5027582;28;19917;-71
2022/03/29 09:10:38;;;;;;;;;;;12.80;60.10;;;;;;5027858;28;19913;-71
2022/03/29 09:13:20;;;;;;;;;;;13.00;60.20;;;;;;5044963;28;19909;-72
2022/03/29 09:15:52;;;;;;;;;;;13.10;59.80;;;;;;5045040;28;20108;-72
2022/03/29 09:18:18;;;;;;;;;;;13.40;60.00;;;;;;5045474;28;20112;-72
2022/03/29 09:20:45;;;;;;;;;;;13.50;57.50;;;;;;5044585;28;19913;-72
2022/03/29 09:23:13;;;;;;;;;;;13.60;58.00;;;;;;5027428;28;19920;-71
2022/03/29 09:25:46;;;;;;;;;;;13.80;57.50;;;;;;5026555;28;19924;-72
2022/03/29 09:28:13;;;;;;;;;;;13.80;56.70;;;;;;5045319;28;19909;-72
2022/03/29 09:30:44;;;;;;;;;;;14.00;56.60;;;;;;5044824;28;20147;-72
2022/03/29 09:33:12;;;;;;;;;;;14.10;56.30;;;;;;5028084;28;20139;-71
2022/03/29 09:36:07;;;;;;;;;;;14.40;56.00;;;;;;5045596;28;20093;-71
2022/03/29 09:38:36;;;;;;;;;;;14.50;55.90;;;;;;5039970;28;19917;-72
2022/03/29 09:41:02;;;;;;;;;;;14.60;52.10;;;;;;5044878;28;19929;-72
2022/03/29 09:43:29;;;;;;;;;;;14.40;53.30;;;;;;5045321;28;19988;-71
2022/03/29 09:45:59;;;;;;;;;;;14.70;52.90;;;;;;5026494;28;19909;-70
2022/03/29 09:48:38;;;;;;;;;;;14.80;54.00;;;;;;5011370;28;19936;-70
2022/03/29 09:51:06;;;;;;;;;;;14.90;53.30;;;;;;5044538;28;19909;-70
2022/03/29 09:53:43;;;;;;;;;;;15.10;53.00;;;;;;5043446;28;19916;-69
2022/03/29 09:56:15;;;;;;;;;;;15.20;51.90;;;;;;5042182;28;20246;-69
2022/03/29 09:58:41;;;;;;;;;;;15.40;51.80;;;;;;5026415;28;19967;-70
2022/03/29 10:01:21;;;;;;;;;;;15.40;50.70;;;;;;5026561;28;19909;-70
2022/03/29 10:03:47;;;;;;;;;;;15.60;52.00;;;;;;5044525;28;19913;-71
2022/03/29 10:06:13;;;;;;;;;;;15.60;51.80;;;;;;5026716;28;19909;-72
2022/03/29 10:11:23;;;;;;;;;;;15.60;51.10;;;;;;5028742;28;19947;-71
2022/03/29 10:13:49;;;;;;;;;;;15.70;50.40;;;;;;5026904;28;19913;-71
2022/03/29 10:16:16;;;;;;;;;;;15.80;50.30;;;;;;5044005;28;19909;-70
2022/03/29 10:18:43;;;;;;;;;;;15.90;51.30;;;;;;5043864;28;19988;-71
2022/03/29 10:21:11;;;;;;;;;;;16.10;51.50;;;;;;5043546;28;19956;-71
2022/03/29 10:23:36;;;;;;;;;;;16.30;50.30;;;;;;5043500;28;19913;-71
2022/03/29 10:26:02;;;;;;;;;;;16.60;50.80;;;;;;5042706;28;19976;-71
2022/03/29 10:28:28;;;;;;;;;;;16.70;51.00;;;;;;5009705;28;19916;-71
2022/03/29 10:30:54;;;;;;;;;;;16.80;50.80;;;;;;5043272;28;19916;-71
2022/03/29 10:33:23;;;;;;;;;;;17.00;50.80;;;;;;5043430;28;19976;-71
2022/03/29 10:36:11;;;;;;;;;;;17.30;50.90;;;;;;5043579;28;19916;-71
2022/03/29 10:38:45;;;;;;;;;;;17.70;50.30;;;;;;5043335;28;20200;-71
2022/03/29 10:41:27;;;;;;;;;;;18.00;49.00;;;;;;5043446;28;20123;-71
2022/03/29 10:43:53;;;;;;;;;;;18.10;48.10;;;;;;5043320;28;19909;-70
2022/03/29 10:46:23;;;;;;;;;;;18.00;48.30;;;;;;5043598;28;19916;-70
2022/03/29 10:49:34;;;;;;;;;;;18.00;49.70;;;;;;5043063;28;20150;-71
2022/03/29 10:52:05;;;;;;;;;;;18.10;48.30;;;;;;4982363;28;19981;-70
2022/03/29 10:54:37;;;;;;;;;;;18.70;46.90;;;;;;4981695;28;20377;-71
2022/03/29 10:57:08;;;;;;;;;;;18.70;47.00;;;;;;5013209;28;19917;-70
2022/03/29 10:59:35;;;;;;;;;;;19.00;48.40;;;;;;5042829;28;20246;-70
2022/03/29 11:02:15;;;;;;;;;;;19.10;46.60;;;;;;5043209;28;19913;-71
2022/03/29 11:05:03;;;;;;;;;;;19.10;45.90;;;;;;5043116;28;19909;-70
2022/03/29 11:07:30;;;;;;;;;;;19.40;45.50;;;;;;5043180;28;19941;-71
2022/03/29 11:10:10;;;;;;;;;;;19.70;44.90;;;;;;5008962;28;20239;-71
2022/03/29 11:12:41;;;;;;;;;;;19.90;44.60;;;;;;5042306;28;20158;-71
2022/03/29 11:15:25;;;;;;;;;;;20.30;45.50;;;;;;5025211;28;20208;-72
2022/03/29 11:17:54;;;;;;;;;;;20.30;44.20;;;;;;5041741;28;19921;-71
2022/03/29 11:20:32;;;;;;;;;;;20.40;43.90;;;;;;5040231;28;19928;-71
2022/03/29 11:23:01;;;;;;;;;;;20.60;44.00;;;;;;5039922;28;19951;-70
2022/03/29 11:25:27;;;;;;;;;;;20.60;43.60;;;;;;5041352;28;19913;-70
2022/03/29 11:27:53;;;;;;;;;;;20.60;42.30;;;;;;5042384;28;19915;-71
2022/03/29 11:30:19;;;;;;;;;;;21.00;42.60;;;;;;5039731;28;19967;-71
2022/03/29 11:32:46;;;;;;;;;;;20.90;41.30;;;;;;5041455;28;19935;-71
2022/03/29 11:35:12;;;;;;;;;;;21.10;41.30;;;;;;5041861;28;20032;-71
2022/03/29 11:37:40;;;;;;;;;;;21.30;40.80;;;;;;5041550;28;19909;-71
2022/03/29 11:40:10;;;;;;;;;;;21.60;40.80;;;;;;5042153;28;19913;-71
2022/03/29 11:42:45;;;;;;;;;;;21.90;40.50;;;;;;5042290;28;19913;-71
2022/03/29 11:45:12;;;;;;;;;;;21.70;39.30;;;;;;5042825;28;19909;-71
2022/03/29 11:47:38;;;;;;;;;;;21.70;40.90;;;;;;5042691;28;19909;-72
2022/03/29 11:50:04;;;;;;;;;;;21.60;39.30;;;;;;5042432;28;19909;-71
2022/03/29 11:52:33;;;;;;;;;;;21.60;38.90;;;;;;5042311;28;19917;-71
2022/03/29 11:54:59;;;;;;;;;;;21.30;39.10;;;;;;5042302;28;19909;-71
2022/03/29 11:57:27;;;;;;;;;;;21.00;39.30;;;;;;5041657;28;19909;-71
2022/03/29 11:59:53;;;;;;;;;;;21.10;39.40;;;;;;5024494;28;19915;-71
2022/03/29 12:02:19;;;;;;;;;;;21.60;39.80;;;;;;5024220;28;19978;-71
2022/03/29 12:04:47;;;;;;;;;;;22.00;39.60;;;;;;5042240;28;19916;-71
2022/03/29 12:07:14;;;;;;;;;;;21.70;38.20;;;;;;5042271;28;19979;-71
2022/03/29 12:09:47;;;;;;;;;;;22.20;38.20;;;;;;5041483;28;19913;-71
2022/03/29 12:12:12;;;;;;;;;;;22.80;37.10;;;;;;5005596;28;19972;-71
2022/03/29 12:14:38;;;;;;;;;;;23.10;36.70;;;;;;5024760;28;19908;-71
2022/03/29 12:17:04;;;;;;;;;;;23.60;36.30;;;;;;5041993;28;19948;-71
2022/03/29 12:19:31;;;;;;;;;;;23.20;35.90;;;;;;5042280;28;19909;-69
2022/03/29 12:22:06;;;;;;;;;;;23.10;35.90;;;;;;5042354;28;19921;-71
2022/03/29 12:24:33;;;;;;;;;;;22.90;36.20;;;;;;5042033;28;19952;-71
2022/03/29 12:27:05;;;;;;;;;;;22.00;37.20;;;;;;5024306;28;19952;-70
2022/03/29 12:29:32;;;;;;;;;;;22.20;37.60;;;;;;5042279;28;19909;-71
2022/03/29 12:31:59;;;;;;;;;;;22.10;37.20;;;;;;5024097;28;19915;-71
2022/03/29 12:34:27;;;;;;;;;;;22.50;37.30;;;;;;5024936;28;19909;-71
2022/03/29 12:37:03;;;;;;;;;;;22.60;37.40;;;;;;5008348;28;19920;-71
2022/03/29 12:39:34;;;;;;;;;;;23.00;37.00;;;;;;5066888;22;19920;-63
2022/03/29 12:42:00;;;;;;;;;;;23.60;36.30;;;;;;5066794;28;19935;-62
2022/03/29 12:44:43;;;;;;;;;;;23.30;36.30;;;;;;5082153;28;20166;-63
2022/03/29 12:47:09;;;;;;;;;;;23.40;36.10;;;;;;5071413;28;19984;-63
2022/03/29 12:49:35;;;;;;;;;;;23.70;36.00;;;;;;5063708;28;20190;-63
2022/03/29 12:52:05;;;;;;;;;;;23.60;37.80;;;;;;5065213;28;20200;-61
2022/03/29 12:55:11;;;;;;;;;;;23.70;36.30;;;;;;5065565;28;19940;-63
2022/03/29 12:57:39;;;;;;;;;;;23.40;35.80;;;;;;5062688;28;19909;-63
2022/03/29 13:00:15;;;;;;;;;;;24.00;35.60;;;;;;5080743;28;20000;-62
2022/03/29 13:02:43;;;;;;;;;;;24.40;36.50;;;;;;5064806;28;20183;-62
2022/03/29 13:05:09;;;;;;;;;;;23.90;35.30;;;;;;5065363;28;20150;-63
2022/03/29 13:07:48;;;;;;;;;;;24.30;35.60;;;;;;5065391;28;20171;-63
2022/03/29 13:10:25;;;;;;;;;;;24.50;34.80;;;;;;5065123;28;19909;-62
2022/03/29 13:13:12;;;;;;;;;;;24.80;35.20;;;;;;5065354;28;19975;-63
2022/03/29 13:16:05;;;;;;;;;;;24.70;33.90;;;;;;5064996;28;19980;-63
2022/03/29 13:18:34;;;;;;;;;;;25.30;34.20;;;;;;5045339;28;19921;-63
2022/03/29 13:21:13;;;;;;;;;;;25.60;33.80;;;;;;5044590;28;19948;-62
2022/03/29 13:23:42;;;;;;;;;;;25.80;33.60;;;;;;5045352;28;19936;-63
2022/03/29 13:26:09;;;;;;;;;;;25.20;34.60;;;;;;5044727;28;20205;-63
2022/03/29 13:28:35;;;;;;;;;;;24.70;34.50;;;;;;5049211;28;19916;-62
2022/03/29 13:31:03;;;;;;;;;;;24.20;36.40;;;;;;5063247;28;20200;-63
2022/03/29 13:33:28;;;;;;;;;;;24.00;36.00;;;;;;5064984;28;19951;-63
2022/03/29 13:35:54;;;;;;;;;;;23.80;35.80;;;;;;5064508;28;19909;-63
2022/03/29 13:38:20;;;;;;;;;;;23.30;36.40;;;;;;5064435;28;20200;-62
2022/03/29 13:40:47;;;;;;;;;;;23.30;36.90;;;;;;5063719;28;19916;-63
2022/03/29 13:43:13;;;;;;;;;;;23.40;36.90;;;;;;5062334;28;19928;-62
2022/03/29 13:45:39;;;;;;;;;;;23.60;36.60;;;;;;5064714;28;19931;-62
2022/03/29 13:48:05;;;;;;;;;;;23.70;36.90;;;;;;5064187;28;20203;-63
2022/03/29 13:50:31;;;;;;;;;;;24.00;36.50;;;;;;5064037;28;19916;-62
2022/03/29 13:52:57;;;;;;;;;;;24.20;35.70;;;;;;5063765;28;19968;-63
2022/03/29 13:55:22;;;;;;;;;;;24.50;34.50;;;;;;5079589;28;19909;-63
2022/03/29 13:57:48;;;;;;;;;;;24.90;33.90;;;;;;5064382;28;20230;-62
2022/03/29 14:00:16;;;;;;;;;;;25.10;34.10;;;;;;5064042;28;19931;-63
2022/03/29 14:02:42;;;;;;;;;;;24.90;34.20;;;;;;5063902;28;19920;-63
2022/03/29 14:05:07;;;;;;;;;;;25.50;33.50;;;;;;5063845;28;19916;-62
2022/03/29 14:07:33;;;;;;;;;;;25.30;32.60;;;;;;5079683;28;19909;-63
2022/03/29 14:09:59;;;;;;;;;;;25.10;32.20;;;;;;5063657;28;19909;-64
2022/03/29 14:12:25;;;;;;;;;;;25.10;32.30;;;;;;5063045;28;20119;-64
2022/03/29 14:14:50;;;;;;;;;;;24.80;33.00;;;;;;5064208;28;19909;-64
2022/03/29 14:17:17;;;;;;;;;;;25.20;32.00;;;;;;5063875;28;19908;-64
2022/03/29 14:19:45;;;;;;;;;;;24.90;31.70;;;;;;5063782;28;19916;-64
2022/03/29 14:22:14;;;;;;;;;;;24.80;31.40;;;;;;5063485;28;19913;-64
2022/03/29 14:24:40;;;;;;;;;;;24.00;31.80;;;;;;5063893;28;19909;-64
2022/03/29 14:27:05;;;;;;;;;;;23.80;32.20;;;;;;5061716;28;20108;-65
2022/03/29 14:29:31;;;;;;;;;;;23.70;32.80;;;;;;5062994;28;19909;-64
2022/03/29 14:32:00;;;;;;;;;;;23.70;32.60;;;;;;5062865;28;19962;-64
2022/03/29 14:34:25;;;;;;;;;;;23.60;32.80;;;;;;5063365;28;19909;-64
2022/03/29 14:36:51;;;;;;;;;;;23.00;33.40;;;;;;5063746;28;19915;-65